Terminal Aerodrome Forecast
Issued by NWS Tulsa, OK

Home | Current Version | Previous Version | Text Only | Print | Product List | Glossary On
Versions: 1 2 3 4 5 6 7 8 9 10 11 12 13 14 15 16 17 18 19
895
FTUS44 KTSA 272337
TAFTUL
TAF
KTUL 272337Z 2800/2824 01008KT P6SM BKN035
     FM280200 03004KT P6SM SCT040
     FM281000 05005KT P6SM BKN025
     FM281600 10010KT P6SM BKN035=

USA.gov is the U.S. government's official web portal to all federal, state and local government web resources and services.